Time;durP1;ratioP1;P1;durP2;ratioP2;P2;SDS_P1;SDS_P2;PMS_P1;PMS_P2;Temp;Humidity;BMP_temperature;BMP_pressure;BME280_temperature;BME280_humidity;BME280_pressure;Samples;Min_cycle;Max_cycle;Signal;HPM_P1;HPM_P2
2022/09/25 00:00:47;;;;;;;;;;;;;;;17.48;60.57;100356.84;4978385;28;6962;-75
2022/09/25 00:03:15;;;;;;;;;;;;;;;17.44;60.26;100353.34;4963790;28;6975;-74
2022/09/25 00:05:44;;;;;;;;;;;;;;;17.44;60.86;100360.22;4976033;28;7174;-75
2022/09/25 00:08:11;;;;;;;;;;;;;;;17.41;61.15;100365.34;4978730;28;6799;-75
2022/09/25 00:10:44;;;;;;;;;;;;;;;17.41;60.33;100360.16;4985189;28;7103;-74
2022/09/25 00:13:10;;;;;;;;;;;;;;;17.40;60.76;100358.44;4978230;28;7667;-75
2022/09/25 00:15:37;;;;;;;;;;;;;;;17.38;61.10;100355.78;4979431;28;7226;-74
2022/09/25 00:18:03;;;;;;;;;;;;;;;17.39;60.74;100372.22;4980111;28;7010;-74
2022/09/25 00:20:28;;;;;;;;;;;;;;;17.37;60.94;100363.53;4980054;28;7290;-75
2022/09/25 00:22:55;;;;;;;;;;;;;;;17.35;60.93;100356.59;4979353;28;6981;-75
2022/09/25 00:25:21;;;;;;;;;;;;;;;17.35;60.85;100361.78;4998208;28;6800;-75
2022/09/25 00:27:49;;;;;;;;;;;;;;;17.35;60.81;100353.16;4979158;28;7618;-74
2022/09/25 00:30:14;;;;;;;;;;;;;;;17.34;60.54;100348.81;4980991;28;6974;-75
2022/09/25 00:32:40;;;;;;;;;;;;;;;17.32;61.09;100356.56;4959736;28;6975;-74
2022/09/25 00:35:06;;;;;;;;;;;;;;;17.29;60.84;100353.91;4980405;28;6915;-75
2022/09/25 00:37:34;;;;;;;;;;;;;;;17.27;61.06;100354.72;4979244;28;6792;-74
2022/09/25 00:40:00;;;;;;;;;;;;;;;17.24;60.93;100358.13;4983449;28;6800;-75
2022/09/25 00:42:25;;;;;;;;;;;;;;;17.23;61.16;100358.97;5004929;28;7023;-74
2022/09/25 00:45:04;;;;;;;;;;;;;;;17.22;61.14;100354.63;4983225;28;6874;-76
2022/09/25 00:47:45;;;;;;;;;;;;;;;17.20;61.26;100358.91;4997960;28;6796;-75
2022/09/25 00:50:48;;;;;;;;;;;;;;;17.17;61.46;100367.47;4984226;28;6828;-75
2022/09/25 00:53:26;;;;;;;;;;;;;;;17.15;61.02;100376.06;5003812;28;8051;-75
2022/09/25 00:55:55;;;;;;;;;;;;;;;17.14;61.04;100367.44;4983935;28;7018;-75
2022/09/25 00:58:25;;;;;;;;;;;;;;;17.13;61.44;100370.84;4980668;28;7186;-75
2022/09/25 01:00:52;;;;;;;;;;;;;;;17.14;61.17;100377.78;4982125;28;7273;-75
2022/09/25 01:03:20;;;;;;;;;;;;;;;17.15;61.25;100373.47;4986345;28;9161;-75
2022/09/25 01:05:48;;;;;;;;;;;;;;;17.17;61.17;100376.94;4986206;28;7217;-76
2022/09/25 01:08:22;;;;;;;;;;;;;;;17.16;61.16;100375.22;4984458;28;7002;-75
2022/09/25 01:10:48;;;;;;;;;;;;;;;17.17;61.07;100374.38;4990809;28;6796;-75
2022/09/25 01:13:15;;;;;;;;;;;;;;;17.16;60.86;100373.50;4982831;28;6988;-75
2022/09/25 01:16:08;;;;;;;;;;;;;;;17.16;61.11;100380.38;4982301;28;6985;-75
2022/09/25 01:18:48;;;;;;;;;;;;;;;17.12;61.12;100376.84;4999173;28;8098;-75
2022/09/25 01:21:41;;;;;;;;;;;;;;;17.11;61.31;100374.25;5004235;28;7206;-75
2022/09/25 01:24:50;;;;;;;;;;;;;;;17.08;60.90;100380.25;4983867;28;7461;-75
2022/09/25 01:27:43;;;;;;;;;;;;;;;17.04;61.06;100379.28;4989088;28;7071;-75
2022/09/25 01:30:19;;;;;;;;;;;;;;;17.02;61.24;100378.41;5003730;28;7007;-75
2022/09/25 01:33:00;;;;;;;;;;;;;;;17.02;61.20;100377.50;4970870;28;11225;-75
2022/09/25 01:35:48;;;;;;;;;;;;;;;17.02;61.14;100382.69;4962528;28;7075;-75
2022/09/25 01:38:42;;;;;;;;;;;;;;;17.01;60.75;100386.13;4998092;28;6828;-75
2022/09/25 01:41:34;;;;;;;;;;;;;;;17.00;60.84;100384.34;4985261;28;6804;-74
2022/09/25 01:44:12;;;;;;;;;;;;;;;16.99;61.19;100388.63;4969264;28;9051;-75
2022/09/25 01:46:47;;;;;;;;;;;;;;;17.00;60.76;100386.94;5001345;28;8301;-75
2022/09/25 01:49:30;;;;;;;;;;;;;;;17.00;60.73;100389.53;4976267;28;7240;-75
2022/09/25 01:52:00;;;;;;;;;;;;;;;16.99;61.05;100393.81;4975331;28;6804;-75
2022/09/25 01:54:39;;;;;;;;;;;;;;;17.00;60.68;100387.84;4996083;28;6828;-75
2022/09/25 01:57:48;;;;;;;;;;;;;;;16.99;60.97;100392.94;4958819;28;6986;-75
2022/09/25 02:00:20;;;;;;;;;;;;;;;16.99;60.95;100399.00;4979490;28;6800;-75
2022/09/25 02:02:54;;;;;;;;;;;;;;;16.98;61.31;100389.47;4979829;28;7221;-75
2022/09/25 02:05:51;;;;;;;;;;;;;;;16.98;61.18;100392.06;4981322;28;7212;-75
2022/09/25 02:08:27;;;;;;;;;;;;;;;16.98;61.00;100396.38;4991495;28;7741;-75
2022/09/25 02:11:01;;;;;;;;;;;;;;;16.96;61.08;100393.75;4981466;28;6868;-75
2022/09/25 02:13:43;;;;;;;;;;;;;;;16.94;60.92;100391.13;4965629;28;9716;-76
2022/09/25 02:16:21;;;;;;;;;;;;;;;16.90;60.60;100388.44;4960218;28;7146;-75
2022/09/25 02:22:05;;;;;;;;;;;;;;;16.81;60.66;100396.88;4984304;28;6820;-75
2022/09/25 02:24:55;;;;;;;;;;;;;;;16.77;60.76;100390.75;4990630;28;7225;-76
2022/09/25 02:27:23;;;;;;;;;;;;;;;16.74;61.10;100395.88;4965373;28;7283;-75
2022/09/25 02:29:50;;;;;;;;;;;;;;;16.71;61.12;100393.22;4980021;28;7413;-75
2022/09/25 02:32:24;;;;;;;;;;;;;;;16.69;60.98;100387.13;4981331;28;7225;-75
2022/09/25 02:34:51;;;;;;;;;;;;;;;16.67;61.19;100391.41;4983070;28;6820;-74
2022/09/25 02:37:17;;;;;;;;;;;;;;;16.64;60.95;100391.34;4959223;28;7241;-75
2022/09/25 02:39:50;;;;;;;;;;;;;;;16.62;61.41;100391.28;4997308;28;6800;-75
2022/09/25 02:42:49;;;;;;;;;;;;;;;16.59;61.08;100387.75;4979486;28;8669;-75
2022/09/25 02:45:50;;;;;;;;;;;;;;;16.56;61.59;100387.69;4965297;28;7032;-75
2022/09/25 02:48:44;;;;;;;;;;;;;;;16.55;61.81;100391.13;4989260;28;6954;-74
2022/09/25 02:51:19;;;;;;;;;;;;;;;16.56;61.39;100392.88;4987059;28;7698;-75
2022/09/25 02:54:04;;;;;;;;;;;;;;;16.56;61.36;100392.88;4996435;28;7116;-77
2022/09/25 02:56:46;;;;;;;;;;;;;;;16.56;61.55;100391.13;4979532;28;6974;-77
2022/09/25 02:59:27;;;;;;;;;;;;;;;16.57;61.59;100392.03;4984812;28;8293;-77
2022/09/25 03:01:55;;;;;;;;;;;;;;;16.57;61.41;100384.25;4979624;28;8263;-77
2022/09/25 03:04:25;;;;;;;;;;;;;;;16.60;61.86;100390.38;4981314;28;6880;-77
2022/09/25 03:06:52;;;;;;;;;;;;;;;16.61;61.41;100386.06;4986444;28;6808;-77
2022/09/25 03:09:21;;;;;;;;;;;;;;;16.62;62.08;100387.84;5001384;28;6848;-77
2022/09/25 03:11:47;;;;;;;;;;;;;;;16.63;61.98;100389.59;4981390;28;6915;-78
2022/09/25 03:14:12;;;;;;;;;;;;;;;16.64;61.65;100386.16;4998378;28;7012;-77
2022/09/25 03:16:54;;;;;;;;;;;;;;;16.63;61.79;100399.94;4981986;28;7063;-77
2022/09/25 03:19:19;;;;;;;;;;;;;;;16.62;62.05;100401.63;4972455;28;6979;-76
2022/09/25 03:21:46;;;;;;;;;;;;;;;16.61;61.38;100394.72;4987687;28;7126;-77
2022/09/25 03:24:13;;;;;;;;;;;;;;;16.62;61.95;100400.78;4992196;28;6867;-78
2022/09/25 03:26:39;;;;;;;;;;;;;;;16.62;61.42;100403.38;4991200;28;7379;-80
2022/09/25 03:29:05;;;;;;;;;;;;;;;16.62;61.99;100403.38;4981906;28;7106;-78
2022/09/25 03:31:31;;;;;;;;;;;;;;;16.61;62.00;100406.75;4978365;28;7086;-79
2022/09/25 03:33:57;;;;;;;;;;;;;;;16.58;61.95;100407.59;5004788;28;6942;-77
2022/09/25 03:36:27;;;;;;;;;;;;;;;16.58;61.80;100409.28;4987087;28;7215;-78
2022/09/25 03:38:57;;;;;;;;;;;;;;;16.57;61.81;100415.31;5005512;28;6946;-77
2022/09/25 03:41:29;;;;;;;;;;;;;;;16.55;61.71;100411.81;4998014;28;7022;-77
2022/09/25 03:43:56;;;;;;;;;;;;;;;16.52;61.71;100408.31;4989563;28;6964;-78
2022/09/25 03:46:26;;;;;;;;;;;;;;;16.51;61.80;100406.59;4985842;28;6875;-78
2022/09/25 03:48:53;;;;;;;;;;;;;;;16.52;61.64;100410.03;4964802;28;7070;-77
2022/09/25 03:51:20;;;;;;;;;;;;;;;16.51;61.67;100408.28;4985765;28;6988;-77
2022/09/25 03:53:48;;;;;;;;;;;;;;;16.51;61.78;100406.59;4988928;28;7024;-77
2022/09/25 03:56:19;;;;;;;;;;;;;;;16.50;61.52;100409.13;4986365;28;7008;-78
2022/09/25 03:58:46;;;;;;;;;;;;;;;16.49;61.78;100413.41;4975585;28;7221;-78
2022/09/25 04:01:14;;;;;;;;;;;;;;;16.48;61.67;100410.81;4977739;28;6808;-78
2022/09/25 04:03:44;;;;;;;;;;;;;;;16.46;61.82;100403.00;4972016;28;8524;-77
2022/09/25 04:06:10;;;;;;;;;;;;;;;16.47;61.44;100415.09;4984539;28;8675;-78
2022/09/25 04:08:36;;;;;;;;;;;;;;;16.47;61.68;100409.91;5213488;23;8424;-78
2022/09/25 04:11:06;;;;;;;;;;;;;;;16.45;61.61;100401.25;4914877;28;6968;-78
2022/09/25 04:13:41;;;;;;;;;;;;;;;16.44;61.71;100407.25;4941377;23;9013;-77
2022/09/25 04:16:07;;;;;;;;;;;;;;;16.42;61.69;100400.28;4935169;28;6812;-76
2022/09/25 04:18:33;;;;;;;;;;;;;;;16.40;61.40;100405.44;4940795;28;7172;-77
2022/09/25 04:21:12;;;;;;;;;;;;;;;16.38;61.57;100405.41;4934083;28;6829;-77
2022/09/25 04:23:38;;;;;;;;;;;;;;;16.37;61.79;100402.78;4926912;28;6994;-77
2022/09/25 04:26:05;;;;;;;;;;;;;;;16.37;61.52;100398.50;4938643;28;6976;-77
2022/09/25 04:28:31;;;;;;;;;;;;;;;16.37;61.51;100397.59;4941484;28;6867;-77
2022/09/25 04:30:58;;;;;;;;;;;;;;;16.36;61.39;100401.03;4924082;28;6989;-77
2022/09/25 04:36:08;;;;;;;;;;;;;;;16.34;61.80;100398.41;4932781;28;6813;-76
2022/09/25 04:38:34;;;;;;;;;;;;;;;16.34;61.23;100398.41;4937846;28;8638;-77
2022/09/25 04:41:00;;;;;;;;;;;;;;;16.35;61.68;100399.28;4904786;28;7268;-76
2022/09/25 04:43:30;;;;;;;;;;;;;;;16.36;61.50;100401.03;4930833;28;6793;-76
2022/09/25 04:46:08;;;;;;;;;;;;;;;16.34;61.59;100408.75;4935710;28;6999;-76
2022/09/25 04:48:34;;;;;;;;;;;;;;;16.32;61.21;100406.94;4919538;28;8082;-77
2022/09/25 04:51:00;;;;;;;;;;;;;;;16.30;61.57;100412.09;4931659;28;7231;-76
2022/09/25 04:53:29;;;;;;;;;;;;;;;16.29;61.27;100406.88;4936608;28;6784;-76
2022/09/25 04:56:01;;;;;;;;;;;;;;;16.29;61.41;100415.53;4902517;28;7341;-76
2022/09/25 04:58:27;;;;;;;;;;;;;;;16.28;61.35;100415.47;4914952;28;7080;-76
2022/09/25 05:00:52;;;;;;;;;;;;;;;16.27;61.28;100411.16;4937895;28;6961;-76
2022/09/25 05:03:18;;;;;;;;;;;;;;;16.26;60.96;100412.84;4921116;28;7202;-76
2022/09/25 05:05:44;;;;;;;;;;;;;;;16.23;61.41;100407.59;4903672;28;7025;-76
2022/09/25 05:08:10;;;;;;;;;;;;;;;16.22;61.29;100413.63;4944163;28;7414;-76
2022/09/25 05:10:39;;;;;;;;;;;;;;;16.21;60.80;100411.88;4944856;28;7037;-76
2022/09/25 05:13:08;;;;;;;;;;;;;;;16.20;61.21;100415.28;4924252;28;10136;-76
2022/09/25 05:15:34;;;;;;;;;;;;;;;16.20;60.97;100412.72;4930122;28;7063;-75
2022/09/25 05:18:11;;;;;;;;;;;;;;;16.19;60.96;100419.56;4924285;28;7035;-78
2022/09/25 05:20:37;;;;;;;;;;;;;;;16.18;60.96;100411.81;4932561;28;6820;-76
2022/09/25 05:23:03;;;;;;;;;;;;;;;16.18;60.81;100417.84;4937639;28;8194;-75
2022/09/25 05:25:30;;;;;;;;;;;;;;;16.15;61.25;100417.75;4929590;28;6937;-76
2022/09/25 05:27:58;;;;;;;;;;;;;;;16.15;61.02;100420.34;4927840;28;6816;-76
2022/09/25 05:30:30;;;;;;;;;;;;;;;16.14;61.18;100418.59;4898019;28;6980;-76
2022/09/25 05:32:59;;;;;;;;;;;;;;;16.14;60.65;100415.13;4921078;28;7215;-76
2022/09/25 05:35:29;;;;;;;;;;;;;;;16.14;60.53;100416.03;4912768;28;7256;-76
2022/09/25 05:37:55;;;;;;;;;;;;;;;16.15;60.82;100416.88;4900300;28;6992;-76
2022/09/25 05:40:22;;;;;;;;;;;;;;;16.15;60.74;100420.34;4928796;28;7361;-76
2022/09/25 05:42:49;;;;;;;;;;;;;;;16.15;61.07;100422.03;4933308;28;8792;-76
2022/09/25 05:45:17;;;;;;;;;;;;;;;16.15;60.98;100422.03;4933084;28;7111;-76
2022/09/25 05:47:43;;;;;;;;;;;;;;;16.15;60.92;100422.03;4934190;28;6811;-76
2022/09/25 05:50:13;;;;;;;;;;;;;;;16.16;60.73;100434.13;4933393;28;7240;-76
2022/09/25 05:52:38;;;;;;;;;;;;;;;16.13;60.53;100429.78;4934796;28;6875;-76
2022/09/25 05:55:06;;;;;;;;;;;;;;;16.13;60.84;100432.38;4932458;28;6780;-76
2022/09/25 05:57:34;;;;;;;;;;;;;;;16.15;60.59;100432.38;4934206;28;6979;-76
2022/09/25 06:00:05;;;;;;;;;;;;;;;16.16;60.79;100421.22;4927604;28;7333;-76
2022/09/25 06:02:31;;;;;;;;;;;;;;;16.16;60.92;100434.13;4926569;28;8259;-76
2022/09/25 06:04:56;;;;;;;;;;;;;;;16.15;61.06;100422.03;4931848;28;7048;-76
2022/09/25 06:07:22;;;;;;;;;;;;;;;16.15;60.95;100425.53;4930482;28;6855;-76
2022/09/25 06:09:47;;;;;;;;;;;;;;;16.15;60.84;100433.28;4929885;28;6776;-76
2022/09/25 06:12:13;;;;;;;;;;;;;;;16.15;60.75;100438.44;4933429;28;6934;-76
2022/09/25 06:14:39;;;;;;;;;;;;;;;16.13;61.00;100431.47;4932986;28;6807;-76
2022/09/25 06:17:06;;;;;;;;;;;;;;;16.15;60.74;100435.88;4933513;28;7145;-76
2022/09/25 06:19:32;;;;;;;;;;;;;;;16.15;60.44;100437.56;4933808;28;6808;-76
2022/09/25 06:21:57;;;;;;;;;;;;;;;16.15;60.33;100440.16;4933442;28;6863;-76
2022/09/25 06:24:23;;;;;;;;;;;;;;;16.15;60.21;100443.63;4934856;28;6792;-77
2022/09/25 06:26:49;;;;;;;;;;;;;;;16.11;60.04;100452.13;4919103;28;7209;-77
2022/09/25 06:29:15;;;;;;;;;;;;;;;16.07;60.12;100455.47;4932422;28;7257;-76
2022/09/25 06:31:40;;;;;;;;;;;;;;;16.04;59.96;100450.22;4932819;28;6954;-76
2022/09/25 06:34:08;;;;;;;;;;;;;;;15.98;59.63;100455.22;4932873;28;7832;-76
2022/09/25 06:36:34;;;;;;;;;;;;;;;15.91;60.17;100449.88;4932639;28;7200;-76
2022/09/25 06:38:59;;;;;;;;;;;;;;;15.87;60.15;100458.38;4932168;28;8065;-76
2022/09/25 06:41:25;;;;;;;;;;;;;;;15.80;59.92;100453.84;4932981;28;6989;-76
2022/09/25 06:43:51;;;;;;;;;;;;;;;15.75;59.97;100463.19;4932653;28;6883;-76
2022/09/25 06:46:18;;;;;;;;;;;;;;;15.69;59.69;100462.19;4911626;28;7922;-76
2022/09/25 06:48:53;;;;;;;;;;;;;;;15.65;60.01;100462.94;4929862;28;6796;-76
2022/09/25 06:51:23;;;;;;;;;;;;;;;15.62;60.05;100468.00;4932674;28;6977;-76
2022/09/25 06:53:52;;;;;;;;;;;;;;;15.59;60.40;100462.75;4929355;28;6851;-76
2022/09/25 06:56:19;;;;;;;;;;;;;;;15.58;60.49;100458.44;4926316;28;6981;-76
2022/09/25 06:58:44;;;;;;;;;;;;;;;15.56;61.05;100465.25;4930346;28;7168;-76
2022/09/25 07:01:12;;;;;;;;;;;;;;;15.58;60.23;100461.00;4911466;28;6931;-76
2022/09/25 07:03:45;;;;;;;;;;;;;;;15.60;60.53;100464.50;4935537;28;7248;-76
2022/09/25 07:06:27;;;;;;;;;;;;;;;15.62;61.01;100461.97;4921158;28;6992;-76
2022/09/25 07:08:55;;;;;;;;;;;;;;;15.64;61.09;100466.34;4917128;28;7004;-76
2022/09/25 07:11:25;;;;;;;;;;;;;;;15.67;61.28;100471.59;4931401;28;6800;-76
2022/09/25 07:13:53;;;;;;;;;;;;;;;15.69;61.05;100459.59;4919218;28;6971;-75
2022/09/25 07:16:22;;;;;;;;;;;;;;;15.73;60.53;100464.84;4905245;28;7000;-75
2022/09/25 07:18:49;;;;;;;;;;;;;;;15.74;60.94;100461.41;4917251;28;6908;-76
2022/09/25 07:21:18;;;;;;;;;;;;;;;15.77;60.33;100469.28;4905823;28;7134;-76
2022/09/25 07:23:47;;;;;;;;;;;;;;;15.81;61.04;100458.19;4921852;28;6923;-76
2022/09/25 07:26:21;;;;;;;;;;;;;;;15.85;61.07;100465.19;4928008;28;6964;-76
2022/09/25 07:28:59;;;;;;;;;;;;;;;15.86;60.89;100466.94;4916601;28;7398;-76
2022/09/25 07:31:28;;;;;;;;;;;;;;;15.87;61.33;100460.94;4917038;28;7355;-76
2022/09/25 07:33:54;;;;;;;;;;;;;;;15.89;61.05;100476.50;4913545;28;10429;-76
2022/09/25 07:36:21;;;;;;;;;;;;;;;15.90;60.75;100463.63;4911391;28;6962;-76
2022/09/25 07:38:51;;;;;;;;;;;;;;;15.93;60.87;100463.75;4929769;28;7231;-76
2022/09/25 07:41:21;;;;;;;;;;;;;;;15.98;60.80;100471.59;4918379;28;6816;-76
2022/09/25 07:43:51;;;;;;;;;;;;;;;16.02;61.03;100465.69;4916505;28;8287;-76
2022/09/25 07:46:17;;;;;;;;;;;;;;;16.07;61.44;100470.97;4925899;28;7194;-76
2022/09/25 07:48:42;;;;;;;;;;;;;;;16.13;61.17;100470.25;4917672;28;7607;-76
2022/09/25 07:51:10;;;;;;;;;;;;;;;16.16;60.86;100475.50;4927167;28;6794;-76
2022/09/25 07:53:38;;;;;;;;;;;;;;;16.21;60.63;100474.78;4911725;28;6980;-76
2022/09/25 07:56:04;;;;;;;;;;;;;;;16.27;60.70;100475.78;4925215;28;7029;-76
2022/09/25 07:58:29;;;;;;;;;;;;;;;16.32;61.16;100466.44;4925718;28;7386;-76
2022/09/25 08:01:00;;;;;;;;;;;;;;;16.38;60.58;100462.31;4927152;28;6789;-76
2022/09/25 08:03:27;;;;;;;;;;;;;;;16.45;61.11;100463.34;4918295;28;7278;-76
2022/09/25 08:06:05;;;;;;;;;;;;;;;16.54;60.63;100465.25;4924022;28;7184;-76
2022/09/25 08:08:33;;;;;;;;;;;;;;;16.61;60.77;100476.63;4924192;28;8193;-76
2022/09/25 08:11:01;;;;;;;;;;;;;;;16.66;60.77;100475.94;4921752;29;6996;-76
2022/09/25 08:13:28;;;;;;;;;;;;;;;16.72;60.60;100482.06;4900683;29;7190;-76
2022/09/25 08:15:55;;;;;;;;;;;;;;;16.76;60.38;100479.59;4903750;28;6837;-75
2022/09/25 08:18:21;;;;;;;;;;;;;;;16.84;59.78;100486.69;4924620;28;6832;-75
2022/09/25 08:20:46;;;;;;;;;;;;;;;16.89;59.87;100485.94;4915255;29;7321;-76
2022/09/25 08:23:12;;;;;;;;;;;;;;;16.96;59.59;100480.91;4928393;28;6780;-76
2022/09/25 08:25:38;;;;;;;;;;;;;;;17.03;59.71;100483.69;4906120;28;7010;-76
2022/09/25 08:28:03;;;;;;;;;;;;;;;17.11;59.41;100490.78;4924583;28;6934;-76
2022/09/25 08:30:29;;;;;;;;;;;;;;;17.15;59.41;100482.22;4929519;28;6776;-76
2022/09/25 08:32:54;;;;;;;;;;;;;;;17.20;59.13;100478.91;4927439;28;7006;-76
2022/09/25 08:35:20;;;;;;;;;;;;;;;17.26;59.22;100475.56;4926953;28;6925;-75
2022/09/25 08:37:47;;;;;;;;;;;;;;;17.31;58.76;100471.38;4910724;29;6788;-76
2022/09/25 08:40:27;;;;;;;;;;;;;;;17.39;59.06;100470.66;4922323;28;7434;-76
2022/09/25 08:42:56;;;;;;;;;;;;;;;17.45;58.79;100474.25;4932195;28;7361;-76
2022/09/25 08:51:21;;;;;;;;;;;;;;;17.60;58.41;100465.91;4918093;28;6812;-76
2022/09/25 08:53:47;;;;;;;;;;;;;;;17.70;58.15;100468.69;4921757;29;6784;-76
2022/09/25 08:56:16;;;;;;;;;;;;;;;17.79;58.05;100476.66;4928329;28;6955;-76
2022/09/25 08:59:02;;;;;;;;;;;;;;;17.89;57.76;100469.91;4918235;28;6996;-76
2022/09/25 09:01:42;;;;;;;;;;;;;;;17.98;57.93;100477.00;4920484;28;7268;-76
2022/09/25 09:04:23;;;;;;;;;;;;;;;18.08;57.41;100473.78;4929639;28;6812;-76
2022/09/25 09:06:58;;;;;;;;;;;;;;;18.16;57.10;100482.56;4930673;28;6808;-76
2022/09/25 09:09:35;;;;;;;;;;;;;;;18.24;56.83;100476.63;4929021;28;6813;-76
2022/09/25 09:12:40;;;;;;;;;;;;;;;18.35;56.50;100480.31;4928013;28;6887;-76
2022/09/25 09:15:39;;;;;;;;;;;;;;;18.51;56.51;100475.34;4911887;28;7312;-76
2022/09/25 09:18:30;;;;;;;;;;;;;;;18.62;56.22;100475.53;4936877;28;7884;-76
2022/09/25 09:21:27;;;;;;;;;;;;;;;18.72;55.36;100475.69;4930424;28;6816;-76
2022/09/25 09:24:16;;;;;;;;;;;;;;;18.82;55.25;100478.44;4912731;28;7045;-76
2022/09/25 09:26:53;;;;;;;;;;;;;;;18.87;54.26;100477.66;4925704;28;6986;-75
2022/09/25 09:30:05;;;;;;;;;;;;;;;18.98;54.90;100480.41;4927520;28;7347;-76
2022/09/25 09:33:12;;;;;;;;;;;;;;;19.16;54.83;100476.38;4906682;28;7265;-76
2022/09/25 09:36:05;;;;;;;;;;;;;;;19.32;54.17;100469.66;4919060;28;7317;-76
2022/09/25 09:39:10;;;;;;;;;;;;;;;19.41;53.68;100468.88;4926405;28;6874;-76
2022/09/25 09:42:00;;;;;;;;;;;;;;;19.49;53.07;100466.41;4927628;28;6997;-76
2022/09/25 09:44:50;;;;;;;;;;;;;;;19.54;52.19;100468.19;4927861;28;6804;-76
2022/09/25 09:47:52;;;;;;;;;;;;;;;19.48;52.21;100460.31;4921903;28;7001;-76
2022/09/25 09:50:23;;;;;;;;;;;;;;;19.38;51.68;100464.53;4925257;28;7206;-76
2022/09/25 09:53:02;;;;;;;;;;;;;;;19.35;52.47;100458.44;4925813;28;6808;-76
2022/09/25 09:55:42;;;;;;;;;;;;;;;19.36;52.62;100460.16;4930266;28;11384;-76
2022/09/25 09:58:58;;;;;;;;;;;;;;;19.43;52.13;100447.25;4930384;28;6808;-76
2022/09/25 10:01:30;;;;;;;;;;;;;;;19.53;52.41;100458.66;4931185;28;7052;-76
2022/09/25 10:04:23;;;;;;;;;;;;;;;19.75;52.57;100445.00;4925239;28;7197;-76
2022/09/25 10:07:22;;;;;;;;;;;;;;;19.97;52.13;100446.16;4918820;28;6851;-76
2022/09/25 10:09:53;;;;;;;;;;;;;;;20.21;51.26;100442.03;4927591;28;6816;-75
2022/09/25 10:12:25;;;;;;;;;;;;;;;20.49;51.31;100442.28;4909946;28;6996;-76
2022/09/25 10:14:51;;;;;;;;;;;;;;;20.84;50.27;100443.41;4916798;28;6812;-77
2022/09/25 10:17:18;;;;;;;;;;;;;;;21.11;48.74;100442.69;4921000;28;6852;-76
2022/09/25 10:19:55;;;;;;;;;;;;;;;21.06;47.88;100450.47;4931807;28;6891;-76
2022/09/25 10:22:44;;;;;;;;;;;;;;;20.86;47.55;100450.38;4929221;28;7231;-76
2022/09/25 10:25:09;;;;;;;;;;;;;;;20.76;47.29;100441.59;4920237;28;7865;-76
2022/09/25 10:27:40;;;;;;;;;;;;;;;21.02;47.99;100435.72;4914668;28;6982;-76
2022/09/25 10:30:12;;;;;;;;;;;;;;;21.93;47.23;100439.53;4930764;28;6800;-76
2022/09/25 10:33:10;;;;;;;;;;;;;;;23.11;45.27;100422.91;4931285;28;13164;-76
2022/09/25 10:35:47;;;;;;;;;;;;;;;24.48;43.94;100422.06;4929126;28;6820;-75
2022/09/25 10:38:48;;;;;;;;;;;;;;;25.79;42.51;100411.81;4920739;28;7245;-75
2022/09/25 10:41:18;;;;;;;;;;;;;;;26.50;39.89;100422.06;4931123;28;7242;-76
2022/09/25 10:44:00;;;;;;;;;;;;;;;25.91;39.24;100421.28;4929064;28;6804;-76
2022/09/25 10:52:12;;;;;;;;;;;;;;;25.33;40.03;100423.81;4927535;28;7436;-76
2022/09/25 10:54:37;;;;;;;;;;;;;;;25.97;39.01;100414.19;4931790;28;6860;-76
2022/09/25 10:57:37;;;;;;;;;;;;;;;26.83;38.12;100408.34;4911742;28;7028;-76
2022/09/25 11:00:20;;;;;;;;;;;;;;;27.59;36.69;100407.66;4923874;28;7671;-76
2022/09/25 11:02:50;;;;;;;;;;;;;;;27.51;35.89;100413.97;4929677;28;13159;-75
2022/09/25 11:05:25;;;;;;;;;;;;;;;26.62;36.31;100424.50;4918102;28;6993;-76
2022/09/25 11:07:55;;;;;;;;;;;;;;;25.48;36.90;100417.50;4929855;28;6887;-76
2022/09/25 11:10:35;;;;;;;;;;;;;;;24.40;37.91;100424.78;4919258;28;7317;-75
2022/09/25 11:13:16;;;;;;;;;;;;;;;23.88;39.03;100426.03;4927350;28;6841;-76
2022/09/25 11:15:52;;;;;;;;;;;;;;;24.48;39.46;100412.47;4920341;28;7008;-76
2022/09/25 11:19:03;;;;;;;;;;;;;;;25.51;37.83;100409.59;4927085;28;6800;-76
2022/09/25 11:21:58;;;;;;;;;;;;;;;26.65;36.03;100410.41;4927308;28;6820;-76
2022/09/25 11:24:39;;;;;;;;;;;;;;;27.53;34.86;100413.06;4931246;28;6992;-76
2022/09/25 11:27:41;;;;;;;;;;;;;;;28.05;34.02;100404.84;4929294;28;7450;-76
2022/09/25 11:30:21;;;;;;;;;;;;;;;28.68;33.13;100398.84;4930560;28;8637;-75
2022/09/25 11:33:41;;;;;;;;;;;;;;;29.18;32.75;100397.47;4931416;28;11391;-76
2022/09/25 11:37:10;;;;;;;;;;;;;;;29.14;30.86;100404.59;4910049;28;6970;-76
2022/09/25 11:43:04;;;;;;;;;;;;;;;26.40;31.94;100415.25;4917794;28;6804;-75
2022/09/25 11:45:58;;;;;;;;;;;;;;;25.72;33.48;100406.69;4932268;28;7369;-76
2022/09/25 11:48:57;;;;;;;;;;;;;;;26.43;33.16;100404.72;4917379;28;7250;-75
2022/09/25 11:52:06;;;;;;;;;;;;;;;27.43;31.85;100393.13;4932655;28;6812;-75
2022/09/25 11:55:13;;;;;;;;;;;;;;;28.12;31.69;100388.00;4932457;28;6800;-76
2022/09/25 11:58:00;;;;;;;;;;;;;;;28.55;31.38;100391.28;4930209;28;6800;-76
2022/09/25 12:00:53;;;;;;;;;;;;;;;27.89;30.95;100380.66;4915695;28;7023;-76
2022/09/25 12:03:49;;;;;;;;;;;;;;;26.81;32.21;100389.97;4929924;28;7008;-76
2022/09/25 12:06:48;;;;;;;;;;;;;;;25.88;32.80;100387.22;4931352;28;7072;-76
2022/09/25 12:10:11;;;;;;;;;;;;;;;25.50;34.19;100383.41;4927232;28;6792;-76
2022/09/25 12:13:05;;;;;;;;;;;;;;;26.23;33.85;100386.66;4923289;28;6824;-75
2022/09/25 12:16:00;;;;;;;;;;;;;;;26.18;33.33;100381.44;4928470;28;7271;-75
2022/09/25 12:18:54;;;;;;;;;;;;;;;26.22;33.40;100377.94;4930323;28;6816;-75
2022/09/25 12:21:35;;;;;;;;;;;;;;;25.99;32.94;100373.03;4928712;28;6995;-75
2022/09/25 12:24:26;;;;;;;;;;;;;;;25.46;33.42;100363.28;4928278;28;6963;-75
2022/09/25 12:27:29;;;;;;;;;;;;;;;24.88;33.88;100365.81;4935490;28;7657;-75
2022/09/25 12:30:20;;;;;;;;;;;;;;;24.33;34.20;100363.75;4922935;29;7583;-75
2022/09/25 12:33:15;;;;;;;;;;;;;;;23.90;34.06;100362.34;4931939;28;11036;-75
2022/09/25 12:35:49;;;;;;;;;;;;;;;23.55;35.35;100373.91;4923371;28;7295;-75
2022/09/25 12:38:54;;;;;;;;;;;;;;;23.30;35.69;100371.44;4935548;28;7179;-75
2022/09/25 12:41:51;;;;;;;;;;;;;;;23.13;35.74;100363.63;4933231;28;9829;-75
2022/09/25 12:44:36;;;;;;;;;;;;;;;23.08;36.31;100368.03;4932194;28;6828;-76
2022/09/25 12:47:11;;;;;;;;;;;;;;;23.04;36.36;100364.56;4932707;28;7697;-75
2022/09/25 12:49:55;;;;;;;;;;;;;;;22.92;35.96;100368.06;4932387;28;6999;-75
2022/09/25 12:52:41;;;;;;;;;;;;;;;22.72;36.13;100352.50;4938806;28;6808;-74
2022/09/25 12:55:18;;;;;;;;;;;;;;;22.58;36.18;100357.75;4939890;28;7238;-75
2022/09/25 12:58:01;;;;;;;;;;;;;;;22.41;37.02;100353.38;4941609;28;6784;-75
2022/09/25 13:00:32;;;;;;;;;;;;;;;22.26;36.86;100342.97;4930377;28;7194;-75
2022/09/25 13:03:37;;;;;;;;;;;;;;;22.12;36.70;100338.63;4935598;28;7033;-75
2022/09/25 13:06:10;;;;;;;;;;;;;;;21.98;37.05;100340.41;4938891;28;6812;-75
2022/09/25 13:08:45;;;;;;;;;;;;;;;21.90;37.14;100340.38;4939183;28;7154;-74
2022/09/25 13:11:23;;;;;;;;;;;;;;;21.81;37.67;100341.25;4941506;28;6796;-75
2022/09/25 13:13:53;;;;;;;;;;;;;;;21.78;37.63;100343.88;4939518;28;6888;-74
2022/09/25 13:16:20;;;;;;;;;;;;;;;21.76;37.68;100335.16;4931538;28;6831;-76
2022/09/25 13:19:22;;;;;;;;;;;;;;;21.75;37.63;100328.19;4939633;28;7047;-79
2022/09/25 13:21:48;;;;;;;;;;;;;;;21.76;37.99;100327.31;4923231;28;7097;-75
2022/09/25 13:24:17;;;;;;;;;;;;;;;21.78;37.71;100321.25;4935095;28;7066;-75
2022/09/25 13:26:51;;;;;;;;;;;;;;;21.84;38.13;100327.34;4935238;28;7079;-75
2022/09/25 13:29:28;;;;;;;;;;;;;;;21.93;37.92;100327.34;4934774;28;6812;-75
2022/09/25 13:32:16;;;;;;;;;;;;;;;22.00;38.18;100328.22;4932586;28;7611;-75
2022/09/25 13:34:42;;;;;;;;;;;;;;;22.11;38.18;100317.75;4934863;28;9853;-75
2022/09/25 13:37:14;;;;;;;;;;;;;;;22.27;38.06;100316.00;4937144;28;6995;-75
2022/09/25 13:42:40;;;;;;;;;;;;;;;22.57;37.72;100307.25;4935073;28;6816;-75
2022/09/25 13:45:31;;;;;;;;;;;;;;;22.71;37.88;100311.56;4930985;28;6872;-75
2022/09/25 13:48:02;;;;;;;;;;;;;;;22.91;37.54;100305.41;4938322;28;7266;-75
2022/09/25 13:50:45;;;;;;;;;;;;;;;23.44;36.69;100300.78;4937424;28;7750;-74
2022/09/25 13:53:22;;;;;;;;;;;;;;;23.91;35.19;100301.25;4937487;28;7591;-75